Time;durP1;ratioP1;P1;durP2;ratioP2;P2;SDS_P1;SDS_P2;PMS_P1;PMS_P2;Temp;Humidity;BMP_temperature;BMP_pressure;BME280_temperature;BME280_humidity;BME280_pressure;Samples;Min_cycle;Max_cycle;Signal;HPM_P1;HPM_P2
2022/05/24 00:00:28;;;;;;;0.77;0.38;;;13.70;99.90;;;;;;5040826;28;20078;-67
2022/05/24 00:02:54;;;;;;;0.80;0.30;;;13.70;99.90;;;;;;5076981;28;20535;-67
2022/05/24 00:05:21;;;;;;;0.77;0.30;;;13.70;99.90;;;;;;5054379;28;20029;-67
2022/05/24 00:07:47;;;;;;;0.60;0.28;;;13.70;99.90;;;;;;5079046;28;20168;-67
2022/05/24 00:10:27;;;;;;;0.47;0.30;;;13.70;99.90;;;;;;5051555;28;20032;-67
2022/05/24 00:12:52;;;;;;;0.38;0.20;;;13.60;99.90;;;;;;5055803;28;20053;-68
2022/05/24 00:15:22;;;;;;;1.02;0.30;;;13.60;99.90;;;;;;5065342;28;20055;-67
2022/05/24 00:17:59;;;;;;;0.45;0.28;;;13.60;99.90;;;;;;5083779;28;20037;-68
2022/05/24 00:20:30;;;;;;;0.40;0.30;;;13.50;99.90;;;;;;5056909;28;20032;-67
2022/05/24 00:22:56;;;;;;;;;;;13.50;99.90;;;;;;5075696;28;20045;-68
2022/05/24 00:25:22;;;;;;;0.47;0.20;;;13.50;99.90;;;;;;5046934;28;19916;-65
2022/05/24 00:27:48;;;;;;;0.75;0.30;;;13.50;99.90;;;;;;5071820;28;20024;-66
2022/05/24 00:30:18;;;;;;;0.32;0.20;;;13.40;99.90;;;;;;5051191;28;20025;-66
2022/05/24 00:32:44;;;;;;;0.70;0.43;;;13.40;99.90;;;;;;5078729;28;20033;-66
2022/05/24 00:35:10;;;;;;;0.20;0.20;;;13.30;99.90;;;;;;5058670;28;20032;-66
2022/05/24 00:37:41;;;;;;;0.80;0.40;;;13.30;99.90;;;;;;5048093;28;20043;-66
2022/05/24 00:40:11;;;;;;;0.73;0.30;;;13.30;99.90;;;;;;5074948;28;20071;-66
2022/05/24 00:42:38;;;;;;;1.05;0.47;;;13.30;99.90;;;;;;5053519;28;20092;-67
2022/05/24 00:45:11;;;;;;;0.43;0.20;;;13.30;99.90;;;;;;5058015;28;20042;-66
2022/05/24 00:47:42;;;;;;;0.60;0.22;;;13.30;99.90;;;;;;5082289;28;20085;-67
2022/05/24 00:50:19;;;;;;;0.88;0.30;;;13.30;99.90;;;;;;5061408;28;20025;-67
2022/05/24 00:52:54;;;;;;;0.80;0.30;;;13.40;99.90;;;;;;5075904;28;20033;-67
2022/05/24 00:55:22;;;;;;;0.20;0.20;;;13.30;99.90;;;;;;5057740;28;20040;-68
2022/05/24 00:58:05;;;;;;;0.80;0.30;;;13.30;99.90;;;;;;5079580;28;20056;-67
2022/05/24 01:00:31;;;;;;;0.77;0.30;;;13.30;99.90;;;;;;5058964;28;20033;-69
2022/05/24 01:02:57;;;;;;;0.50;0.20;;;13.20;99.90;;;;;;5032724;28;20030;-67
2022/05/24 01:05:26;;;;;;;0.85;0.30;;;13.20;99.90;;;;;;5051852;28;20044;-67
2022/05/24 01:07:52;;;;;;;0.68;0.30;;;13.10;99.90;;;;;;5058045;28;20025;-67
2022/05/24 01:10:50;;;;;;;0.22;0.20;;;13.10;99.90;;;;;;5078055;28;20036;-67
2022/05/24 01:13:24;;;;;;;0.40;0.20;;;13.00;99.90;;;;;;5035706;28;20056;-67
2022/05/24 01:15:51;;;;;;;0.77;0.30;;;13.00;99.90;;;;;;5057352;28;20025;-67
2022/05/24 01:18:18;;;;;;;0.10;0.10;;;13.00;99.90;;;;;;5040955;28;20032;-67
2022/05/24 01:20:49;;;;;;;0.63;0.30;;;13.00;99.90;;;;;;5083882;28;20066;-67
2022/05/24 01:23:38;;;;;;;0.65;0.25;;;13.10;99.90;;;;;;5079604;28;20025;-68
2022/05/24 01:26:30;;;;;;;1.33;0.65;;;13.10;99.90;;;;;;5048411;28;20037;-67
2022/05/24 01:28:59;;;;;;;0.50;0.28;;;13.00;99.90;;;;;;5058776;28;22101;-67
2022/05/24 01:36:09;;;;;;;1.10;0.57;;;13.00;99.90;;;;;;5057516;28;20035;-67
2022/05/24 01:37:04;;;;;;;0.63;0.30;;;13.10;99.90;;;;;;5051655;28;20059;-67
2022/05/24 01:39:30;;;;;;;0.20;0.20;;;13.10;99.90;;;;;;5041101;28;20021;-67
2022/05/24 01:41:57;;;;;;;0.45;0.20;;;13.00;99.90;;;;;;5043774;28;20037;-67
2022/05/24 01:44:35;;;;;;;0.30;0.20;;;13.00;99.90;;;;;;5051969;28;20606;-67
2022/05/24 01:47:01;;;;;;;0.60;0.20;;;13.00;99.90;;;;;;5053753;28;20020;-66
2022/05/24 01:49:31;;;;;;;0.70;0.28;;;13.00;99.90;;;;;;5027909;28;20121;-67
2022/05/24 01:52:05;;;;;;;0.67;0.40;;;12.90;99.90;;;;;;5058012;28;20036;-67
2022/05/24 01:54:35;;;;;;;0.77;0.30;;;12.90;99.90;;;;;;5058839;28;20040;-67
2022/05/24 01:57:14;;;;;;;0.77;0.30;;;12.90;99.90;;;;;;5077278;28;20044;-67
2022/05/24 01:59:41;;;;;;;0.55;0.22;;;12.90;99.90;;;;;;5051979;28;20096;-67
2022/05/24 02:02:07;;;;;;;0.55;0.20;;;12.90;99.90;;;;;;5050380;28;20032;-67
2022/05/24 02:04:34;;;;;;;0.70;0.30;;;12.90;99.90;;;;;;5050305;28;20086;-67
2022/05/24 02:07:10;;;;;;;0.28;0.20;;;13.00;99.90;;;;;;5033645;28;20025;-67
2022/05/24 02:09:40;;;;;;;0.20;0.20;;;13.00;99.90;;;;;;5053120;28;20065;-67
2022/05/24 02:12:12;;;;;;;0.32;0.20;;;13.00;99.90;;;;;;5048128;28;20032;-67
2022/05/24 02:14:41;;;;;;;0.30;0.20;;;13.10;99.90;;;;;;5054134;28;20058;-67
2022/05/24 02:17:23;;;;;;;0.20;0.20;;;13.10;99.90;;;;;;5079006;28;20037;-67
2022/05/24 02:19:52;;;;;;;1.08;0.52;;;13.10;99.90;;;;;;5050352;28;20059;-66
2022/05/24 02:22:22;;;;;;;0.75;0.30;;;13.10;99.90;;;;;;5063364;28;20024;-66
2022/05/24 02:25:20;;;;;;;0.73;0.40;;;13.10;99.90;;;;;;5077276;28;20084;-67
2022/05/24 02:27:47;;;;;;;0.20;0.20;;;13.20;99.90;;;;;;5045777;28;20032;-67
2022/05/24 02:30:15;;;;;;;0.55;0.25;;;13.10;99.90;;;;;;5049961;28;20025;-67
2022/05/24 02:32:41;;;;;;;3.63;1.17;;;13.20;99.90;;;;;;5055810;28;20021;-67
2022/05/24 02:35:07;;;;;;;0.82;0.30;;;13.20;99.90;;;;;;5058386;28;20104;-67
2022/05/24 02:37:33;;;;;;;0.38;0.20;;;13.20;99.90;;;;;;5044815;28;20037;-67
2022/05/24 02:42:43;;;;;;;0.63;0.30;;;13.20;99.90;;;;;;5049310;28;20079;-67
2022/05/24 02:45:09;;;;;;;1.15;0.40;;;13.30;99.90;;;;;;5052307;28;20029;-67
2022/05/24 02:47:34;;;;;;;1.08;0.38;;;13.30;99.90;;;;;;5049794;28;20098;-67
2022/05/24 02:50:00;;;;;;;0.38;0.20;;;13.30;99.90;;;;;;5051414;28;20020;-67
2022/05/24 02:52:26;;;;;;;1.58;0.90;;;13.30;99.90;;;;;;5036117;28;20367;-67
2022/05/24 02:54:52;;;;;;;0.98;0.68;;;13.30;99.90;;;;;;5055454;28;20687;-67
2022/05/24 02:57:17;;;;;;;0.63;0.30;;;13.40;99.90;;;;;;5051094;28;20087;-68
2022/05/24 02:59:43;;;;;;;0.20;0.20;;;13.40;99.90;;;;;;5031300;28;20033;-68
2022/05/24 03:02:09;;;;;;;1.42;0.57;;;13.40;99.90;;;;;;5043103;28;20039;-69
2022/05/24 03:04:35;;;;;;;1.17;0.50;;;13.40;99.90;;;;;;5080902;28;20148;-70
2022/05/24 03:09:45;;;;;;;1.05;0.70;;;13.50;99.90;;;;;;5049047;28;20059;-70
2022/05/24 03:14:56;;;;;;;0.50;0.30;;;13.50;99.90;;;;;;5060591;28;20108;-70
2022/05/24 03:17:23;;;;;;;0.20;0.20;;;13.50;99.90;;;;;;5039012;28;20040;-70
2022/05/24 03:19:49;;;;;;;0.98;0.50;;;13.50;99.90;;;;;;5057160;28;20037;-69
2022/05/24 03:22:15;;;;;;;3.88;0.85;;;13.50;99.90;;;;;;5062206;28;20033;-69
2022/05/24 03:24:41;;;;;;;2.08;0.77;;;13.50;99.90;;;;;;5047987;28;21142;-70
2022/05/24 03:27:13;;;;;;;1.88;0.80;;;13.60;99.90;;;;;;5053921;28;20037;-70
2022/05/24 03:29:44;;;;;;;2.03;1.15;;;13.60;99.90;;;;;;5052243;28;20560;-70
2022/05/24 03:32:11;;;;;;;0.75;0.30;;;13.60;99.90;;;;;;5049676;28;20014;-70
2022/05/24 03:34:41;;;;;;;0.95;0.50;;;13.60;99.90;;;;;;5051270;28;20048;-69
2022/05/24 03:37:07;;;;;;;0.50;0.25;;;13.60;99.90;;;;;;5053702;28;20029;-69
2022/05/24 03:39:33;;;;;;;1.40;0.70;;;13.60;99.90;;;;;;5078029;28;20028;-70
2022/05/24 03:41:59;;;;;;;1.50;0.77;;;13.70;99.90;;;;;;5046947;28;20036;-70
2022/05/24 03:44:25;;;;;;;1.25;0.40;;;13.60;99.90;;;;;;5031062;28;20033;-70
2022/05/24 03:46:52;;;;;;;1.20;0.85;;;13.60;99.90;;;;;;5077728;28;20013;-70
2022/05/24 03:49:18;;;;;;;1.20;0.60;;;13.60;99.90;;;;;;5057955;28;20035;-69
2022/05/24 03:51:44;;;;;;;0.63;0.35;;;13.60;99.90;;;;;;5063600;28;20036;-69
2022/05/24 03:54:09;;;;;;;0.73;0.40;;;13.60;99.90;;;;;;5067459;28;20101;-69
2022/05/24 03:56:36;;;;;;;0.77;0.30;;;13.70;99.90;;;;;;5056135;28;20393;-70
2022/05/24 03:59:03;;;;;;;0.73;0.32;;;13.70;99.90;;;;;;5041034;28;20030;-70
2022/05/24 04:01:28;;;;;;;1.75;1.35;;;13.70;99.90;;;;;;5081276;28;20040;-70
2022/05/24 04:03:54;;;;;;;0.45;0.30;;;13.70;99.90;;;;;;5047939;28;20088;-69
2022/05/24 04:06:20;;;;;;;1.08;0.45;;;13.70;99.90;;;;;;5055926;28;20063;-70
2022/05/24 04:08:45;;;;;;;2.10;0.98;;;13.80;99.90;;;;;;5032481;28;20037;-69
2022/05/24 04:11:12;;;;;;;0.90;0.52;;;13.70;99.90;;;;;;5055069;28;20049;-70
2022/05/24 04:13:40;;;;;;;1.98;1.13;;;13.70;99.90;;;;;;5050601;28;20122;-69
2022/05/24 04:16:06;;;;;;;1.02;0.45;;;13.70;99.90;;;;;;5050694;28;20089;-70
2022/05/24 04:18:32;;;;;;;0.90;0.30;;;13.70;99.90;;;;;;5063610;28;20052;-70
2022/05/24 04:20:58;;;;;;;0.63;0.28;;;13.80;99.90;;;;;;5052016;28;20025;-70
2022/05/24 04:23:25;;;;;;;0.35;0.25;;;13.80;99.90;;;;;;5032547;28;20033;-70
2022/05/24 04:25:52;;;;;;;0.88;0.50;;;13.80;99.90;;;;;;5049380;28;20037;-70
2022/05/24 04:28:21;;;;;;;1.65;1.10;;;13.80;99.90;;;;;;5060903;28;20096;-70
2022/05/24 04:30:48;;;;;;;0.77;0.50;;;13.80;99.90;;;;;;5025718;28;20021;-69
2022/05/24 04:33:16;;;;;;;1.05;0.95;;;13.80;99.90;;;;;;5056172;28;20033;-70
2022/05/24 04:35:43;;;;;;;0.73;0.35;;;13.80;99.90;;;;;;5056843;28;20029;-70
2022/05/24 04:38:09;;;;;;;0.20;0.20;;;13.80;99.90;;;;;;5050831;28;20116;-70
2022/05/24 04:43:19;;;;;;;0.68;0.30;;;13.80;99.90;;;;;;5050558;28;20048;-69
2022/05/24 04:45:45;;;;;;;0.73;0.30;;;13.80;99.90;;;;;;5063170;28;20021;-70
2022/05/24 04:48:11;;;;;;;1.33;0.70;;;13.80;99.90;;;;;;5037623;28;20061;-70
2022/05/24 04:50:37;;;;;;;2.05;1.20;;;13.80;99.90;;;;;;5055804;28;20562;-69
2022/05/24 04:53:03;;;;;;;2.28;0.88;;;13.80;99.90;;;;;;5056955;28;20471;-69
2022/05/24 04:55:28;;;;;;;1.48;0.47;;;13.80;99.90;;;;;;5053601;28;20041;-70
2022/05/24 04:57:55;;;;;;;1.02;0.40;;;13.80;99.90;;;;;;5042229;28;20033;-69
2022/05/24 05:00:22;;;;;;;2.00;0.80;;;13.80;99.90;;;;;;5060609;28;20243;-69
2022/05/24 05:02:48;;;;;;;0.90;0.50;;;13.80;99.90;;;;;;5063725;28;20032;-69
2022/05/24 05:05:15;;;;;;;0.75;0.30;;;13.70;99.90;;;;;;5056305;28;20040;-69
2022/05/24 05:07:41;;;;;;;0.88;0.50;;;13.80;99.90;;;;;;5063304;28;20427;-69
2022/05/24 05:10:09;;;;;;;0.70;0.70;;;13.80;99.90;;;;;;5063167;28;20028;-69
2022/05/24 05:12:35;;;;;;;0.32;0.20;;;13.80;99.90;;;;;;5068043;28;20043;-71
2022/05/24 05:15:00;;;;;;;1.92;1.08;;;13.80;99.90;;;;;;5068342;28;20416;-69
2022/05/24 05:17:26;;;;;;;2.28;0.95;;;13.80;99.90;;;;;;5038972;28;20043;-75
2022/05/24 05:19:52;;;;;;;1.63;1.00;;;13.80;99.90;;;;;;5066162;28;20025;-75
2022/05/24 05:22:18;;;;;;;1.50;0.82;;;13.80;99.90;;;;;;5050656;28;20411;-74
2022/05/24 05:24:44;;;;;;;1.10;0.52;;;13.80;99.90;;;;;;5051541;28;20075;-71
2022/05/24 05:27:10;;;;;;;1.90;1.23;;;13.80;99.90;;;;;;5067640;28;20049;-71
2022/05/24 05:32:23;;;;;;;0.85;0.40;;;13.80;99.90;;;;;;5069188;28;20064;-71
2022/05/24 05:34:49;;;;;;;1.05;0.47;;;13.80;99.90;;;;;;5069311;28;20020;-71
2022/05/24 05:37:15;;;;;;;0.95;0.35;;;13.70;99.90;;;;;;5043845;28;20026;-71
2022/05/24 05:39:41;;;;;;;0.98;0.52;;;13.80;99.90;;;;;;5056677;28;20021;-71
2022/05/24 05:42:07;;;;;;;0.85;0.57;;;13.70;99.90;;;;;;5051699;28;20059;-71
2022/05/24 05:44:33;;;;;;;3.10;1.10;;;13.80;99.90;;;;;;5040882;28;20044;-71
2022/05/24 05:46:58;;;;;;;0.90;0.68;;;13.70;99.90;;;;;;5045903;28;20041;-71
2022/05/24 05:49:24;;;;;;;1.17;0.50;;;13.80;99.90;;;;;;5065015;28;20056;-71
2022/05/24 05:51:50;;;;;;;1.13;0.38;;;13.80;99.90;;;;;;5041710;28;20056;-71
2022/05/24 05:54:15;;;;;;;2.35;0.82;;;13.70;99.90;;;;;;5073131;28;20036;-71
2022/05/24 05:56:41;;;;;;;1.33;0.60;;;13.80;99.90;;;;;;5030982;28;20024;-71
2022/05/24 05:59:07;;;;;;;2.25;1.30;;;13.70;99.90;;;;;;5066679;28;20048;-67
2022/05/24 06:01:33;;;;;;;0.68;0.30;;;13.70;99.90;;;;;;5065439;28;20021;-69
2022/05/24 06:04:00;;;;;;;1.88;0.85;;;13.80;99.90;;;;;;5069459;28;20033;-69
2022/05/24 06:06:30;;;;;;;1.80;0.70;;;13.90;99.90;;;;;;5054838;28;20025;-69
2022/05/24 06:08:56;;;;;;;1.52;0.60;;;14.10;99.90;;;;;;5052417;28;20075;-69
2022/05/24 06:11:23;;;;;;;1.15;0.50;;;14.30;99.90;;;;;;5063078;28;20057;-70
2022/05/24 06:13:49;;;;;;;0.82;0.30;;;14.20;99.90;;;;;;5054197;28;20173;-70
2022/05/24 06:16:16;;;;;;;1.20;0.55;;;14.20;99.90;;;;;;5039142;28;20025;-70
2022/05/24 06:18:42;;;;;;;0.90;0.35;;;14.30;99.90;;;;;;5066004;28;20051;-70
2022/05/24 06:21:08;;;;;;;0.30;0.20;;;14.20;99.90;;;;;;5090795;28;20088;-73
2022/05/24 06:23:34;;;;;;;1.17;0.57;;;14.20;99.90;;;;;;5069615;28;20021;-70
2022/05/24 06:26:00;;;;;;;0.52;0.35;;;14.20;99.90;;;;;;5038841;28;20049;-70
2022/05/24 06:28:26;;;;;;;0.73;0.40;;;14.40;99.90;;;;;;5058410;28;20044;-70
2022/05/24 06:30:52;;;;;;;0.20;0.20;;;14.50;99.90;;;;;;5059588;28;20017;-70
2022/05/24 06:33:18;;;;;;;0.70;0.50;;;14.40;99.90;;;;;;5038492;28;20021;-70
2022/05/24 06:35:44;;;;;;;1.42;0.70;;;14.40;99.90;;;;;;5073510;28;20087;-69
2022/05/24 06:38:09;;;;;;;2.45;1.05;;;14.50;99.90;;;;;;5037154;28;20022;-70
2022/05/24 06:40:35;;;;;;;1.13;0.47;;;14.50;99.90;;;;;;5051522;28;20033;-68
2022/05/24 06:43:02;;;;;;;2.17;1.40;;;14.30;99.90;;;;;;5059703;28;20067;-68
2022/05/24 06:45:29;;;;;;;1.55;0.90;;;14.30;99.90;;;;;;5082823;28;20021;-68
2022/05/24 06:47:55;;;;;;;0.88;0.32;;;14.30;99.90;;;;;;5043006;28;20033;-68
2022/05/24 06:50:20;;;;;;;4.00;0.77;;;14.30;99.90;;;;;;5044709;28;20053;-68
2022/05/24 06:52:47;;;;;;;0.57;0.35;;;14.30;99.90;;;;;;5057648;28;20093;-68
2022/05/24 06:55:13;;;;;;;1.08;0.65;;;14.30;99.90;;;;;;5084416;28;20017;-68
2022/05/24 06:57:39;;;;;;;1.10;0.60;;;14.30;99.90;;;;;;5043645;28;20044;-68
2022/05/24 07:03:02;;;;;;;0.90;0.43;;;14.30;99.90;;;;;;5057269;28;20056;-69
2022/05/24 07:05:29;;;;;;;0.75;0.40;;;14.40;99.90;;;;;;5058275;28;20025;-69
2022/05/24 07:07:57;;;;;;;1.50;0.70;;;14.30;99.90;;;;;;5064740;28;20104;-69
2022/05/24 07:10:23;;;;;;;2.50;0.65;;;14.30;99.90;;;;;;5071320;28;20092;-69
2022/05/24 07:12:58;;;;;;;1.15;0.52;;;14.20;99.90;;;;;;5077312;28;20053;-68
2022/05/24 07:15:24;;;;;;;0.85;0.50;;;14.30;99.90;;;;;;5052869;28;20093;-69
2022/05/24 07:17:50;;;;;;;0.82;0.30;;;14.20;99.90;;;;;;5057142;28;20049;-69
2022/05/24 07:20:15;;;;;;;1.75;0.98;;;14.40;99.90;;;;;;5046606;28;20029;-69
2022/05/24 07:22:42;;;;;;;0.65;0.30;;;14.40;99.90;;;;;;5042870;28;20048;-69
2022/05/24 07:25:08;;;;;;;1.35;0.40;;;14.40;99.90;;;;;;5041865;28;20025;-69
2022/05/24 07:27:34;;;;;;;1.08;0.52;;;14.30;99.90;;;;;;5063313;28;20378;-69
2022/05/24 07:29:59;;;;;;;1.17;0.68;;;14.40;99.90;;;;;;5061676;28;20040;-69
2022/05/24 07:32:25;;;;;;;0.70;0.30;;;14.40;99.90;;;;;;5062742;28;20025;-68
2022/05/24 07:34:51;;;;;;;0.73;0.35;;;14.40;99.90;;;;;;5063290;28;20028;-69
2022/05/24 07:37:17;;;;;;;1.05;0.52;;;14.40;99.90;;;;;;5073664;28;20036;-69
2022/05/24 07:39:43;;;;;;;0.82;0.47;;;14.40;99.90;;;;;;5043223;28;20026;-69
2022/05/24 07:47:37;;;;;;;1.13;0.40;;;14.40;99.90;;;;;;5063047;28;20087;-68
2022/05/24 07:50:05;;;;;;;1.90;0.47;;;14.30;99.90;;;;;;5078494;28;20120;-69
2022/05/24 07:52:31;;;;;;;0.93;0.35;;;14.30;99.90;;;;;;5079686;28;20051;-68
2022/05/24 07:54:56;;;;;;;0.55;0.28;;;14.40;99.90;;;;;;5093105;28;20053;-69
2022/05/24 07:57:22;;;;;;;0.43;0.20;;;14.50;99.90;;;;;;5063251;28;20092;-69
2022/05/24 07:59:48;;;;;;;0.68;0.30;;;14.60;99.90;;;;;;5059381;28;20079;-69
2022/05/24 08:02:16;;;;;;;1.10;0.60;;;14.70;99.90;;;;;;5079498;28;20074;-69
2022/05/24 08:04:43;;;;;;;0.73;0.30;;;14.70;99.90;;;;;;5061754;28;20013;-69
2022/05/24 08:07:09;;;;;;;1.20;0.50;;;14.80;99.90;;;;;;5044556;28;20049;-69
2022/05/24 08:09:35;;;;;;;1.17;0.57;;;14.80;99.90;;;;;;5073792;28;20033;-69
2022/05/24 08:12:01;;;;;;;0.40;0.20;;;14.90;99.90;;;;;;5078016;28;20045;-69
2022/05/24 08:14:27;;;;;;;0.40;0.20;;;15.10;99.90;;;;;;5064230;28;20013;-69
2022/05/24 08:16:52;;;;;;;0.40;0.20;;;15.10;99.90;;;;;;5060087;28;20037;-69
2022/05/24 08:19:18;;;;;;;1.38;0.50;;;15.20;99.90;;;;;;5093431;28;20029;-69
2022/05/24 08:21:44;;;;;;;0.40;0.30;;;15.70;99.90;;;;;;5061742;28;20025;-69
2022/05/24 08:24:09;;;;;;;0.57;0.25;;;16.20;99.90;;;;;;5061430;28;20036;-69
2022/05/24 08:26:37;;;;;;;0.40;0.20;;;16.30;99.90;;;;;;5041053;28;20105;-69
2022/05/24 08:29:03;;;;;;;1.10;0.50;;;16.50;99.90;;;;;;5075840;28;20056;-69
2022/05/24 08:31:28;;;;;;;0.17;0.17;;;17.10;99.90;;;;;;5063374;28;20096;-69
2022/05/24 08:33:54;;;;;;;0.38;0.20;;;17.50;99.90;;;;;;5044242;28;20021;-69
2022/05/24 08:36:20;;;;;;;1.33;0.82;;;17.30;99.90;;;;;;5093844;28;20020;-69
2022/05/24 08:38:45;;;;;;;1.48;0.70;;;17.50;99.90;;;;;;5058263;28;20083;-69
2022/05/24 08:41:34;;;;;;;0.88;0.47;;;17.20;99.90;;;;;;5075230;28;20116;-69
2022/05/24 08:49:52;;;;;;;1.30;0.40;;;16.90;99.90;;;;;;5060969;28;20554;-69
2022/05/24 08:52:19;;;;;;;0.50;0.20;;;17.10;99.90;;;;;;5062091;28;20025;-69
2022/05/24 08:54:46;;;;;;;1.52;0.68;;;17.20;99.90;;;;;;5061573;28;20026;-68
2022/05/24 08:57:46;;;;;;;0.73;0.20;;;16.80;99.90;;;;;;5044302;28;20033;-69
2022/05/24 09:00:17;;;;;;;1.20;0.75;;;16.50;99.90;;;;;;5042207;28;20055;-69
2022/05/24 09:02:45;;;;;;;1.70;0.77;;;17.00;99.90;;;;;;5060152;28;20036;-69
2022/05/24 09:05:22;;;;;;;0.57;0.30;;;17.90;99.90;;;;;;5044910;28;20759;-69
2022/05/24 09:07:48;;;;;;;0.55;0.28;;;18.60;99.90;;;;;;5060667;28;20033;-69
2022/05/24 09:10:21;;;;;;;0.43;0.20;;;18.80;99.90;;;;;;5061085;28;20028;-69
2022/05/24 09:12:49;;;;;;;0.90;0.30;;;18.40;99.90;;;;;;5057332;28;20470;-69
2022/05/24 09:15:30;;;;;;;0.20;0.10;;;18.40;99.90;;;;;;5060660;28;20025;-69
2022/05/24 09:18:19;;;;;;;0.70;0.22;;;18.30;99.90;;;;;;5061850;28;20102;-69
2022/05/24 09:20:46;;;;;;;0.35;0.10;;;18.80;99.90;;;;;;5061106;28;20108;-69
2022/05/24 09:23:39;;;;;;;0.77;0.20;;;18.90;99.90;;;;;;5063005;28;20036;-69
2022/05/24 09:26:07;;;;;;;0.82;0.32;;;18.40;99.90;;;;;;5093100;28;20032;-68
2022/05/24 09:28:51;;;;;;;0.47;0.22;;;17.30;99.90;;;;;;5058211;28;20135;-68
2022/05/24 09:31:32;;;;;;;1.17;0.40;;;17.10;99.90;;;;;;5060464;28;20033;-69
2022/05/24 09:34:07;;;;;;;0.10;0.10;;;16.90;99.90;;;;;;5061412;28;20111;-68
2022/05/24 09:36:35;;;;;;;0.88;0.47;;;16.80;99.90;;;;;;5061256;28;20029;-68
2022/05/24 09:39:04;;;;;;;0.75;0.28;;;16.70;99.90;;;;;;5092047;28;20048;-68
2022/05/24 09:41:30;;;;;;;1.10;0.50;;;16.80;99.90;;;;;;5092928;28;20056;-68
2022/05/24 09:44:13;;;;;;;0.98;0.25;;;16.70;99.90;;;;;;5048802;28;20033;-68
2022/05/24 09:46:42;;;;;;;1.08;0.38;;;16.70;99.90;;;;;;5046234;28;20025;-68
2022/05/24 09:49:17;;;;;;;0.30;0.10;;;16.80;99.90;;;;;;5061441;28;20033;-68
2022/05/24 09:51:43;;;;;;;1.00;0.30;;;17.20;99.90;;;;;;5075400;28;20048;-68
2022/05/24 09:54:22;;;;;;;0.63;0.20;;;17.60;99.90;;;;;;5092327;28;20036;-68
2022/05/24 09:57:10;;;;;;;0.93;0.63;;;18.20;99.90;;;;;;5067781;28;20021;-68
2022/05/24 09:59:39;;;;;;;1.33;0.57;;;18.20;99.90;;;;;;5061586;28;20032;-69
2022/05/24 10:02:29;;;;;;;0.50;0.20;;;18.70;99.90;;;;;;5057903;28;20107;-70
2022/05/24 10:04:55;;;;;;;0.50;0.17;;;17.90;99.90;;;;;;5073417;28;20028;-68
2022/05/24 10:07:34;;;;;;;1.17;0.38;;;18.30;99.90;;;;;;5052005;28;20138;-68
2022/05/24 10:10:14;;;;;;;1.00;0.45;;;18.70;99.90;;;;;;5057666;28;20024;-68
2022/05/24 10:12:46;;;;;;;0.63;0.35;;;19.30;99.90;;;;;;5051944;28;20040;-68
2022/05/24 10:15:15;;;;;;;0.10;0.10;;;19.30;99.90;;;;;;5056905;28;20025;-69
2022/05/24 10:17:55;;;;;;;0.28;0.10;;;20.00;99.90;;;;;;5054936;28;20017;-68
2022/05/24 10:20:47;;;;;;;0.10;0.10;;;20.30;99.90;;;;;;5052464;28;20036;-68
2022/05/24 10:23:30;;;;;;;0.57;0.38;;;20.00;99.90;;;;;;5055305;28;20021;-68
2022/05/24 10:26:17;;;;;;;0.10;0.10;;;20.20;99.90;;;;;;5056301;28;20040;-68
2022/05/24 10:28:49;;;;;;;0.93;0.40;;;19.70;99.90;;;;;;5051654;28;20029;-67
2022/05/24 10:31:23;;;;;;;0.20;0.10;;;19.40;99.90;;;;;;5084253;28;20716;-68
2022/05/24 10:40:30;;;;;;;0.10;0.10;;;16.20;99.90;;;;;;5046276;28;20110;-68
2022/05/24 10:43:34;;;;;;;0.43;0.20;;;15.70;99.90;;;;;;5058162;28;20033;-68
2022/05/24 10:46:08;;;;;;;0.38;0.10;;;15.50;99.90;;;;;;5079763;28;20025;-68
2022/05/24 10:48:36;;;;;;;0.28;0.10;;;15.10;99.90;;;;;;5059190;28;20037;-67
2022/05/24 10:51:27;;;;;;;0.35;0.13;;;15.00;99.90;;;;;;5050998;28;20036;-68
2022/05/24 10:53:56;;;;;;;0.25;0.20;;;14.60;99.90;;;;;;5058095;28;20033;-67
2022/05/24 10:56:54;;;;;;;0.28;0.10;;;14.20;99.90;;;;;;5055792;28;20147;-67
2022/05/24 10:59:40;;;;;;;0.40;0.20;;;14.10;99.90;;;;;;5057200;28;20040;-67
2022/05/24 11:02:31;;;;;;;0.47;0.20;;;13.90;99.90;;;;;;5048736;28;20029;-66
2022/05/24 11:05:09;;;;;;;0.28;0.20;;;13.90;99.90;;;;;;5052453;28;20410;-69
2022/05/24 11:07:36;;;;;;;0.20;0.20;;;13.80;99.90;;;;;;5056281;28;20036;-68
2022/05/24 11:10:13;;;;;;;0.28;0.20;;;13.80;99.90;;;;;;5071842;28;20025;-68
2022/05/24 11:12:50;;;;;;;0.52;0.20;;;14.20;99.90;;;;;;5065530;28;20421;-69
2022/05/24 11:15:34;;;;;;;0.25;0.20;;;14.40;99.90;;;;;;5062920;28;20021;-70
2022/05/24 11:18:11;;;;;;;1.15;0.40;;;14.40;99.90;;;;;;5048462;28;20056;-70
2022/05/24 11:20:41;;;;;;;0.40;0.20;;;14.70;99.90;;;;;;5056969;28;20025;-70
2022/05/24 11:23:18;;;;;;;0.20;0.20;;;15.20;99.90;;;;;;5038400;28;20052;-69
2022/05/24 11:25:53;;;;;;;0.40;0.22;;;15.00;99.90;;;;;;5079482;28;20925;-69
2022/05/24 11:28:33;;;;;;;0.47;0.20;;;14.90;99.90;;;;;;5051701;28;20033;-70
2022/05/24 11:31:28;;;;;;;0.22;0.10;;;15.00;99.90;;;;;;5080203;28;20411;-69
2022/05/24 11:33:57;;;;;;;0.28;0.10;;;14.70;99.90;;;;;;5060352;28;20029;-69
2022/05/24 11:36:43;;;;;;;0.80;0.30;;;14.40;99.90;;;;;;5051490;28;20047;-70
2022/05/24 11:39:17;;;;;;;0.30;0.20;;;14.30;99.90;;;;;;5064863;28;20034;-69
2022/05/24 11:41:44;;;;;;;0.17;0.13;;;14.20;99.90;;;;;;5052283;28;20036;-70
2022/05/24 11:44:33;;;;;;;0.43;0.20;;;14.40;99.90;;;;;;5056180;28;20028;-70
2022/05/24 11:46:58;;;;;;;0.22;0.10;;;14.30;99.90;;;;;;5048560;28;20097;-71
2022/05/24 11:49:27;;;;;;;0.57;0.20;;;14.40;99.90;;;;;;5025678;28;20053;-73
2022/05/24 11:51:55;;;;;;;0.70;0.30;;;14.60;99.90;;;;;;5050673;28;20057;-71
2022/05/24 11:54:23;;;;;;;0.70;0.20;;;14.90;99.90;;;;;;5086766;28;20029;-71
2022/05/24 11:57:01;;;;;;;0.60;0.20;;;15.00;99.90;;;;;;5058698;28;20025;-72
2022/05/24 11:59:48;;;;;;;0.38;0.20;;;15.30;99.90;;;;;;5051059;28;20044;-72
2022/05/24 12:02:27;;;;;;;0.80;0.28;;;15.20;99.90;;;;;;5088097;28;20025;-70
2022/05/24 12:07:55;;;;;;;0.65;0.30;;;15.40;99.90;;;;;;5062272;28;20064;-69
2022/05/24 12:10:21;;;;;;;0.40;0.17;;;15.90;99.90;;;;;;5053394;28;20028;-71
2022/05/24 12:13:02;;;;;;;0.60;0.25;;;16.50;99.90;;;;;;5056982;28;20421;-70
2022/05/24 12:15:31;;;;;;;0.10;0.10;;;16.50;99.90;;;;;;5052747;28;21577;-70
2022/05/24 12:18:00;;;;;;;0.85;0.20;;;16.80;99.90;;;;;;5047901;28;20088;-71
2022/05/24 12:20:35;;;;;;;0.38;0.20;;;17.70;99.90;;;;;;5057802;28;20092;-71
2022/05/24 12:23:07;;;;;;;0.40;0.15;;;18.10;99.90;;;;;;5053443;28;20033;-71
2022/05/24 12:26:05;;;;;;;0.50;0.13;;;17.50;99.90;;;;;;5062563;28;20097;-70
2022/05/24 12:28:37;;;;;;;0.35;0.15;;;18.00;99.90;;;;;;5048210;28;20048;-70
2022/05/24 12:31:18;;;;;;;;;;;17.80;99.90;;;;;;5057502;28;20045;-71
2022/05/24 12:34:01;;;;;;;0.55;0.22;;;18.00;99.90;;;;;;5056571;28;20771;-71
2022/05/24 12:36:39;;;;;;;0.20;0.10;;;17.80;99.90;;;;;;5055749;28;20535;-70
2022/05/24 12:39:08;;;;;;;0.20;0.10;;;17.40;99.90;;;;;;5056760;28;20040;-71
2022/05/24 12:41:38;;;;;;;0.10;0.10;;;17.00;99.90;;;;;;5060738;28;20037;-71
2022/05/24 12:44:12;;;;;;;0.68;0.20;;;16.80;99.90;;;;;;5055536;28;20128;-71
2022/05/24 12:46:38;;;;;;;0.80;0.20;;;16.30;99.90;;;;;;5051330;28;20463;-71
2022/05/24 12:49:14;;;;;;;0.35;0.15;;;16.20;99.90;;;;;;5070831;28;20045;-71
2022/05/24 12:51:40;;;;;;;0.15;0.10;;;16.40;99.90;;;;;;5057971;28;20036;-70
2022/05/24 12:54:16;;;;;;;0.28;0.10;;;16.40;99.90;;;;;;5057587;28;20091;-71
2022/05/24 12:56:53;;;;;;;1.35;0.38;;;16.20;99.90;;;;;;5053781;28;20033;-71
2022/05/24 12:59:28;;;;;;;0.75;0.50;;;16.20;99.90;;;;;;5055276;28;20048;-70
2022/05/24 13:01:54;;;;;;;1.15;0.52;;;15.80;99.90;;;;;;5057414;28;20043;-72
2022/05/24 13:04:27;;;;;;;0.30;0.10;;;15.70;99.90;;;;;;5068846;28;20025;-71
2022/05/24 13:06:53;;;;;;;0.17;0.10;;;15.70;99.90;;;;;;5060992;28;20378;-69
2022/05/24 13:09:27;;;;;;;0.22;0.10;;;15.50;99.90;;;;;;5046054;28;20037;-70
2022/05/24 13:11:58;;;;;;;0.55;0.20;;;15.50;99.90;;;;;;5050275;28;20037;-70
2022/05/24 13:14:48;;;;;;;0.68;0.20;;;15.60;99.90;;;;;;5057423;28;20025;-70
2022/05/24 13:17:17;;;;;;;0.40;0.20;;;15.70;99.90;;;;;;5054332;28;20032;-70
2022/05/24 13:19:57;;;;;;;0.40;0.20;;;15.90;99.90;;;;;;5094075;28;20488;-71
2022/05/24 13:22:44;;;;;;;0.17;0.10;;;15.90;99.90;;;;;;5063178;28;20025;-70
2022/05/24 13:25:15;;;;;;;0.68;0.20;;;16.10;99.90;;;;;;5059481;28;20658;-70
2022/05/24 13:28:00;;;;;;;0.60;0.25;;;16.10;99.90;;;;;;5059675;28;20051;-70
2022/05/24 13:33:44;;;;;;;0.30;0.20;;;16.20;99.90;;;;;;5057810;28;20040;-71
2022/05/24 13:36:12;;;;;;;0.43;0.20;;;16.30;99.90;;;;;;5094160;28;20123;-71
2022/05/24 13:38:40;;;;;;;0.38;0.20;;;16.90;99.90;;;;;;5059426;28;20104;-71
2022/05/24 13:41:08;;;;;;;0.73;0.30;;;17.00;99.90;;;;;;5060061;28;20052;-71
2022/05/24 13:43:45;;;;;;;0.10;0.10;;;17.50;99.90;;;;;;5059797;28;20056;-71
2022/05/24 13:46:16;;;;;;;0.47;0.20;;;17.80;99.90;;;;;;5076048;28;20029;-71
2022/05/24 13:48:57;;;;;;;0.38;0.13;;;18.10;99.90;;;;;;5061800;28;20072;-72